sensor_id;sensor_type;location;lat;lon;timestamp;pressure;altitude;pressure_sealevel;temperature
17716;BMP280;50159;49.426;11.182;2022-08-03T00:00:28;97717.84;;;18.48
17716;BMP280;50159;49.426;11.182;2022-08-03T00:02:55;97715.22;;;18.48
17716;BMP280;50159;49.426;11.182;2022-08-03T00:05:22;97722.63;;;18.45
17716;BMP280;50159;49.426;11.182;2022-08-03T00:07:49;97724.78;;;18.41
17716;BMP280;50159;49.426;11.182;2022-08-03T00:10:16;97716.72;;;18.35
17716;BMP280;50159;49.426;11.182;2022-08-03T00:12:43;97716.41;;;18.30
17716;BMP280;50159;49.426;11.182;2022-08-03T00:15:10;97718.38;;;18.28
17716;BMP280;50159;49.426;11.182;2022-08-03T00:17:43;97721.97;;;18.27
17716;BMP280;50159;49.426;11.182;2022-08-03T00:20:20;97729.22;;;18.25
17716;BMP280;50159;49.426;11.182;2022-08-03T00:22:48;97725.94;;;18.23
17716;BMP280;50159;49.426;11.182;2022-08-03T00:25:17;97724.63;;;18.19
17716;BMP280;50159;49.426;11.182;2022-08-03T00:27:44;97732.69;;;18.18
17716;BMP280;50159;49.426;11.182;2022-08-03T00:30:14;97724.44;;;18.13
17716;BMP280;50159;49.426;11.182;2022-08-03T00:32:43;97717.06;;;18.09
17716;BMP280;50159;49.426;11.182;2022-08-03T00:35:11;97727.09;;;18.05
17716;BMP280;50159;49.426;11.182;2022-08-03T00:37:58;97712.59;;;17.94
17716;BMP280;50159;49.426;11.182;2022-08-03T00:40:26;97717.66;;;17.87
17716;BMP280;50159;49.426;11.182;2022-08-03T00:43:01;97721.94;;;17.80
17716;BMP280;50159;49.426;11.182;2022-08-03T00:45:35;97716.00;;;17.78
17716;BMP280;50159;49.426;11.182;2022-08-03T00:48:04;97726.53;;;17.78
17716;BMP280;50159;49.426;11.182;2022-08-03T00:50:52;97718.66;;;17.78
17716;BMP280;50159;49.426;11.182;2022-08-03T00:53:20;97740.66;;;17.77
17716;BMP280;50159;49.426;11.182;2022-08-03T00:55:47;97738.19;;;17.76
17716;BMP280;50159;49.426;11.182;2022-08-03T00:58:14;97731.44;;;17.73
17716;BMP280;50159;49.426;11.182;2022-08-03T01:00:41;97731.28;;;17.67
17716;BMP280;50159;49.426;11.182;2022-08-03T01:03:11;97737.66;;;17.65
17716;BMP280;50159;49.426;11.182;2022-08-03T01:08:31;97729.75;;;17.49
17716;BMP280;50159;49.426;11.182;2022-08-03T01:11:16;97732.69;;;17.46
17716;BMP280;50159;49.426;11.182;2022-08-03T01:17:22;97738.41;;;17.34
17716;BMP280;50159;49.426;11.182;2022-08-03T01:20:13;97736.75;;;17.33
17716;BMP280;50159;49.426;11.182;2022-08-03T01:26:02;97730.47;;;17.26
17716;BMP280;50159;49.426;11.182;2022-08-03T01:32:26;97737.16;;;17.13
17716;BMP280;50159;49.426;11.182;2022-08-03T01:35:30;97738.63;;;17.07
17716;BMP280;50159;49.426;11.182;2022-08-03T01:38:06;97728.28;;;17.06
17716;BMP280;50159;49.426;11.182;2022-08-03T01:40:39;97731.88;;;17.05
17716;BMP280;50159;49.426;11.182;2022-08-03T01:43:09;97730.53;;;17.01
17716;BMP280;50159;49.426;11.182;2022-08-03T01:45:42;97721.44;;;16.96
17716;BMP280;50159;49.426;11.182;2022-08-03T01:48:11;97726.88;;;16.94
17716;BMP280;50159;49.426;11.182;2022-08-03T01:50:42;97722.75;;;16.92
17716;BMP280;50159;49.426;11.182;2022-08-03T01:53:14;97722.75;;;16.92
17716;BMP280;50159;49.426;11.182;2022-08-03T01:55:43;97727.19;;;16.91
17716;BMP280;50159;49.426;11.182;2022-08-03T01:58:14;97727.63;;;16.87
17716;BMP280;50159;49.426;11.182;2022-08-03T02:00:43;97722.53;;;16.85
17716;BMP280;50159;49.426;11.182;2022-08-03T02:03:14;97721.88;;;16.83
17716;BMP280;50159;49.426;11.182;2022-08-03T02:05:44;97721.06;;;16.83
17716;BMP280;50159;49.426;11.182;2022-08-03T02:08:15;97725.66;;;16.81
17716;BMP280;50159;49.426;11.182;2022-08-03T02:10:45;97724.00;;;16.80
17716;BMP280;50159;49.426;11.182;2022-08-03T02:13:15;97729.53;;;16.77
17716;BMP280;50159;49.426;11.182;2022-08-03T02:15:45;97726.09;;;16.77
17716;BMP280;50159;49.426;11.182;2022-08-03T02:18:14;97726.25;;;16.75
17716;BMP280;50159;49.426;11.182;2022-08-03T02:20:43;97731.00;;;16.72
17716;BMP280;50159;49.426;11.182;2022-08-03T02:23:10;97729.84;;;16.66
17716;BMP280;50159;49.426;11.182;2022-08-03T02:25:50;97722.25;;;16.63
17716;BMP280;50159;49.426;11.182;2022-08-03T02:28:21;97730.44;;;16.60
17716;BMP280;50159;49.426;11.182;2022-08-03T02:30:54;97722.22;;;16.56
17716;BMP280;50159;49.426;11.182;2022-08-03T02:33:36;97720.66;;;16.45
17716;BMP280;50159;49.426;11.182;2022-08-03T02:36:05;97725.84;;;16.37
17716;BMP280;50159;49.426;11.182;2022-08-03T02:38:38;97724.00;;;16.30
17716;BMP280;50159;49.426;11.182;2022-08-03T02:41:15;97727.06;;;16.26
17716;BMP280;50159;49.426;11.182;2022-08-03T02:43:48;97722.13;;;16.23
17716;BMP280;50159;49.426;11.182;2022-08-03T02:46:43;97721.47;;;16.21
17716;BMP280;50159;49.426;11.182;2022-08-03T02:49:13;97726.03;;;16.19
17716;BMP280;50159;49.426;11.182;2022-08-03T02:52:03;97726.03;;;16.19
17716;BMP280;50159;49.426;11.182;2022-08-03T02:54:39;97726.72;;;16.21
17716;BMP280;50159;49.426;11.182;2022-08-03T02:57:08;97718.84;;;16.21
17716;BMP280;50159;49.426;11.182;2022-08-03T02:59:38;97721.47;;;16.21
17716;BMP280;50159;49.426;11.182;2022-08-03T03:02:06;97722.59;;;16.18
17716;BMP280;50159;49.426;11.182;2022-08-03T03:04:34;97720.28;;;16.15
17716;BMP280;50159;49.426;11.182;2022-08-03T03:07:02;97725.66;;;16.14
17716;BMP280;50159;49.426;11.182;2022-08-03T03:09:32;97725.00;;;16.12
17716;BMP280;50159;49.426;11.182;2022-08-03T03:12:11;97724.31;;;16.10
17716;BMP280;50159;49.426;11.182;2022-08-03T03:14:39;97724.31;;;16.10
17716;BMP280;50159;49.426;11.182;2022-08-03T03:17:09;97731.53;;;16.08
17716;BMP280;50159;49.426;11.182;2022-08-03T03:19:38;97729.88;;;16.07
17716;BMP280;50159;49.426;11.182;2022-08-03T03:22:07;97732.81;;;16.04
17716;BMP280;50159;49.426;11.182;2022-08-03T03:24:36;97739.59;;;15.97
17716;BMP280;50159;49.426;11.182;2022-08-03T03:27:05;97736.59;;;15.92
17716;BMP280;50159;49.426;11.182;2022-08-03T03:29:32;97739.50;;;15.90
17716;BMP280;50159;49.426;11.182;2022-08-03T03:32:05;97732.78;;;15.87
17716;BMP280;50159;49.426;11.182;2022-08-03T03:34:36;97739.00;;;15.86
17716;BMP280;50159;49.426;11.182;2022-08-03T03:37:03;97739.81;;;15.87
17716;BMP280;50159;49.426;11.182;2022-08-03T03:39:31;97735.84;;;15.83
17716;BMP280;50159;49.426;11.182;2022-08-03T03:41:59;97745.00;;;15.79
17716;BMP280;50159;49.426;11.182;2022-08-03T03:44:29;97743.63;;;15.75
17716;BMP280;50159;49.426;11.182;2022-08-03T03:46:57;97738.03;;;15.70
17716;BMP280;50159;49.426;11.182;2022-08-03T03:49:25;97741.63;;;15.69
17716;BMP280;50159;49.426;11.182;2022-08-03T03:51:55;97744.53;;;15.66
17716;BMP280;50159;49.426;11.182;2022-08-03T03:54:22;97739.56;;;15.63
17716;BMP280;50159;49.426;11.182;2022-08-03T03:56:55;97749.25;;;15.63
17716;BMP280;50159;49.426;11.182;2022-08-03T03:59:21;97744.81;;;15.63
17716;BMP280;50159;49.426;11.182;2022-08-03T04:01:48;97743.84;;;15.64
17716;BMP280;50159;49.426;11.182;2022-08-03T04:04:25;97747.03;;;15.68
17716;BMP280;50159;49.426;11.182;2022-08-03T04:07:10;97750.97;;;15.71
17716;BMP280;50159;49.426;11.182;2022-08-03T04:09:56;97747.38;;;15.72
17716;BMP280;50159;49.426;11.182;2022-08-03T04:12:42;97754.44;;;15.72
17716;BMP280;50159;49.426;11.182;2022-08-03T04:15:21;97751.44;;;15.67
17716;BMP280;50159;49.426;11.182;2022-08-03T04:17:52;97748.00;;;15.67
17716;BMP280;50159;49.426;11.182;2022-08-03T04:20:23;97748.00;;;15.67
17716;BMP280;50159;49.426;11.182;2022-08-03T04:22:53;97754.34;;;15.64
17716;BMP280;50159;49.426;11.182;2022-08-03T04:25:25;97749.09;;;15.64
17716;BMP280;50159;49.426;11.182;2022-08-03T04:27:54;97749.78;;;15.66
17716;BMP280;50159;49.426;11.182;2022-08-03T04:30:47;97749.78;;;15.66
17716;BMP280;50159;49.426;11.182;2022-08-03T04:33:17;97754.06;;;15.67
17716;BMP280;50159;49.426;11.182;2022-08-03T04:35:47;97749.09;;;15.64
17716;BMP280;50159;49.426;11.182;2022-08-03T04:38:36;97756.94;;;15.64
17716;BMP280;50159;49.426;11.182;2022-08-03T04:41:05;97760.28;;;15.66
17716;BMP280;50159;49.426;11.182;2022-08-03T04:43:33;97764.91;;;15.72
17716;BMP280;50159;49.426;11.182;2022-08-03T04:46:02;97767.91;;;15.77
17716;BMP280;50159;49.426;11.182;2022-08-03T04:48:30;97769.78;;;15.84
17716;BMP280;50159;49.426;11.182;2022-08-03T04:50:57;97773.34;;;15.92
17716;BMP280;50159;49.426;11.182;2022-08-03T04:53:27;97776.00;;;16.00
17716;BMP280;50159;49.426;11.182;2022-08-03T04:55:54;97770.88;;;16.08
17716;BMP280;50159;49.426;11.182;2022-08-03T04:58:20;97777.88;;;16.17
17716;BMP280;50159;49.426;11.182;2022-08-03T05:00:47;97777.09;;;16.24
17716;BMP280;50159;49.426;11.182;2022-08-03T05:03:16;97772.06;;;16.31
17716;BMP280;50159;49.426;11.182;2022-08-03T05:05:51;97773.09;;;16.37
17716;BMP280;50159;49.426;11.182;2022-08-03T05:08:18;97770.69;;;16.44
17716;BMP280;50159;49.426;11.182;2022-08-03T05:10:55;97771.56;;;16.52
17716;BMP280;50159;49.426;11.182;2022-08-03T05:13:27;97776.72;;;16.61
17716;BMP280;50159;49.426;11.182;2022-08-03T05:15:54;97773.03;;;16.72
17716;BMP280;50159;49.426;11.182;2022-08-03T05:18:21;97776.38;;;16.81
17716;BMP280;50159;49.426;11.182;2022-08-03T05:20:48;97777.78;;;16.93
17716;BMP280;50159;49.426;11.182;2022-08-03T05:23:15;97776.84;;;17.02
17716;BMP280;50159;49.426;11.182;2022-08-03T05:25:42;97778.88;;;17.08
17716;BMP280;50159;49.426;11.182;2022-08-03T05:28:16;97780.69;;;17.15
17716;BMP280;50159;49.426;11.182;2022-08-03T05:30:42;97782.56;;;17.23
17716;BMP280;50159;49.426;11.182;2022-08-03T05:33:10;97780.63;;;17.32
17716;BMP280;50159;49.426;11.182;2022-08-03T05:35:37;97787.59;;;17.41
17716;BMP280;50159;49.426;11.182;2022-08-03T05:38:25;97790.88;;;17.51
17716;BMP280;50159;49.426;11.182;2022-08-03T05:41:00;97785.34;;;17.62
17716;BMP280;50159;49.426;11.182;2022-08-03T05:43:46;97779.63;;;17.74
17716;BMP280;50159;49.426;11.182;2022-08-03T05:46:14;97785.09;;;17.88
17716;BMP280;50159;49.426;11.182;2022-08-03T05:48:41;97776.75;;;18.00
17716;BMP280;50159;49.426;11.182;2022-08-03T05:51:09;97783.19;;;18.14
17716;BMP280;50159;49.426;11.182;2022-08-03T05:53:38;97778.25;;;18.26
17716;BMP280;50159;49.426;11.182;2022-08-03T05:56:05;97787.47;;;18.38
17716;BMP280;50159;49.426;11.182;2022-08-03T05:58:47;97788.81;;;18.50
17716;BMP280;50159;49.426;11.182;2022-08-03T06:01:15;97785.66;;;18.62
17716;BMP280;50159;49.426;11.182;2022-08-03T06:03:44;97774.63;;;18.74
17716;BMP280;50159;49.426;11.182;2022-08-03T06:06:11;97780.22;;;18.87
17716;BMP280;50159;49.426;11.182;2022-08-03T06:08:40;97782.53;;;18.98
17716;BMP280;50159;49.426;11.182;2022-08-03T06:11:08;97777.56;;;19.10
17716;BMP280;50159;49.426;11.182;2022-08-03T06:13:35;97788.03;;;19.26
17716;BMP280;50159;49.426;11.182;2022-08-03T06:16:02;97778.59;;;19.39
17716;BMP280;50159;49.426;11.182;2022-08-03T06:18:29;97785.47;;;19.56
17716;BMP280;50159;49.426;11.182;2022-08-03T06:20:56;97785.06;;;19.74
17716;BMP280;50159;49.426;11.182;2022-08-03T06:23:35;97790.41;;;19.97
17716;BMP280;50159;49.426;11.182;2022-08-03T06:26:21;97781.88;;;20.17
17716;BMP280;50159;49.426;11.182;2022-08-03T06:28:48;97779.56;;;20.36
17716;BMP280;50159;49.426;11.182;2022-08-03T06:31:24;97786.88;;;20.56
17716;BMP280;50159;49.426;11.182;2022-08-03T06:34:04;97784.53;;;20.75
17716;BMP280;50159;49.426;11.182;2022-08-03T06:36:51;97786.88;;;20.92
17716;BMP280;50159;49.426;11.182;2022-08-03T06:39:19;97779.59;;;21.08
17716;BMP280;50159;49.426;11.182;2022-08-03T06:41:49;97784.94;;;21.22
17716;BMP280;50159;49.426;11.182;2022-08-03T06:44:16;97784.75;;;21.38
17716;BMP280;50159;49.426;11.182;2022-08-03T06:46:44;97782.09;;;21.52
17716;BMP280;50159;49.426;11.182;2022-08-03T06:49:11;97776.22;;;21.71
17716;BMP280;50159;49.426;11.182;2022-08-03T06:51:38;97774.00;;;21.88
17716;BMP280;50159;49.426;11.182;2022-08-03T06:54:25;97769.41;;;22.11
17716;BMP280;50159;49.426;11.182;2022-08-03T06:56:53;97778.59;;;22.29
17716;BMP280;50159;49.426;11.182;2022-08-03T06:59:20;97773.47;;;22.48
17716;BMP280;50159;49.426;11.182;2022-08-03T07:02:06;97781.75;;;22.66
17716;BMP280;50159;49.426;11.182;2022-08-03T07:04:35;97772.97;;;22.79
17716;BMP280;50159;49.426;11.182;2022-08-03T07:07:02;97775.53;;;22.93
17716;BMP280;50159;49.426;11.182;2022-08-03T07:09:29;97781.56;;;23.08
17716;BMP280;50159;49.426;11.182;2022-08-03T07:11:56;97781.06;;;23.25
17716;BMP280;50159;49.426;11.182;2022-08-03T07:14:22;97788.38;;;23.44
17716;BMP280;50159;49.426;11.182;2022-08-03T07:16:49;97775.97;;;23.57
17716;BMP280;50159;49.426;11.182;2022-08-03T07:19:16;97783.81;;;23.71
17716;BMP280;50159;49.426;11.182;2022-08-03T07:21:43;97783.47;;;23.87
17716;BMP280;50159;49.426;11.182;2022-08-03T07:24:10;97786.44;;;24.04
17716;BMP280;50159;49.426;11.182;2022-08-03T07:26:37;97779.75;;;24.21
17716;BMP280;50159;49.426;11.182;2022-08-03T07:29:04;97775.06;;;24.36
17716;BMP280;50159;49.426;11.182;2022-08-03T07:31:41;97777.78;;;24.55
17716;BMP280;50159;49.426;11.182;2022-08-03T07:34:08;97774.69;;;24.64
17716;BMP280;50159;49.426;11.182;2022-08-03T07:36:35;97769.03;;;24.80
17716;BMP280;50159;49.426;11.182;2022-08-03T07:39:02;97771.69;;;24.93
17716;BMP280;50159;49.426;11.182;2022-08-03T07:41:44;97773.09;;;25.08
17716;BMP280;50159;49.426;11.182;2022-08-03T07:44:12;97766.94;;;25.20
17716;BMP280;50159;49.426;11.182;2022-08-03T07:46:39;97773.28;;;25.32
17716;BMP280;50159;49.426;11.182;2022-08-03T07:49:06;97779.44;;;25.45
17716;BMP280;50159;49.426;11.182;2022-08-03T07:51:32;97770.59;;;25.57
17716;BMP280;50159;49.426;11.182;2022-08-03T07:53:59;97767.28;;;25.68
17716;BMP280;50159;49.426;11.182;2022-08-03T07:56:27;97767.19;;;25.87
17716;BMP280;50159;49.426;11.182;2022-08-03T07:58:55;97766.94;;;26.01
17716;BMP280;50159;49.426;11.182;2022-08-03T08:01:22;97765.84;;;26.15
17716;BMP280;50159;49.426;11.182;2022-08-03T08:03:49;97760.06;;;26.24
17716;BMP280;50159;49.426;11.182;2022-08-03T08:06:20;97755.66;;;26.42
17716;BMP280;50159;49.426;11.182;2022-08-03T08:08:47;97754.72;;;26.54
17716;BMP280;50159;49.426;11.182;2022-08-03T08:11:14;97762.28;;;26.64
17716;BMP280;50159;49.426;11.182;2022-08-03T08:13:41;97752.34;;;26.77
17716;BMP280;50159;49.426;11.182;2022-08-03T08:16:08;97753.00;;;26.97
17716;BMP280;50159;49.426;11.182;2022-08-03T08:18:34;97752.22;;;27.14
17716;BMP280;50159;49.426;11.182;2022-08-03T08:21:01;97745.50;;;27.29
17716;BMP280;50159;49.426;11.182;2022-08-03T08:23:29;97743.91;;;27.45
17716;BMP280;50159;49.426;11.182;2022-08-03T08:26:10;97738.78;;;27.62
17716;BMP280;50159;49.426;11.182;2022-08-03T08:28:37;97736.78;;;27.75
17716;BMP280;50159;49.426;11.182;2022-08-03T08:31:04;97737.25;;;27.89
17716;BMP280;50159;49.426;11.182;2022-08-03T08:33:31;97733.00;;;28.00
17716;BMP280;50159;49.426;11.182;2022-08-03T08:36:20;97727.63;;;28.17
17716;BMP280;50159;49.426;11.182;2022-08-03T08:38:47;97732.81;;;28.30
17716;BMP280;50159;49.426;11.182;2022-08-03T08:41:15;97731.47;;;28.50
17716;BMP280;50159;49.426;11.182;2022-08-03T08:43:42;97734.69;;;28.70
17716;BMP280;50159;49.426;11.182;2022-08-03T08:46:13;97734.25;;;28.84
17716;BMP280;50159;49.426;11.182;2022-08-03T08:48:51;97729.03;;;29.00
17716;BMP280;50159;49.426;11.182;2022-08-03T08:51:21;97729.28;;;29.10
17716;BMP280;50159;49.426;11.182;2022-08-03T08:53:52;97726.13;;;29.13
17716;BMP280;50159;49.426;11.182;2022-08-03T08:56:21;97729.28;;;29.21
17716;BMP280;50159;49.426;11.182;2022-08-03T08:58:53;97719.38;;;29.33
17716;BMP280;50159;49.426;11.182;2022-08-03T09:01:22;97718.69;;;29.48
17716;BMP280;50159;49.426;11.182;2022-08-03T09:03:49;97715.84;;;29.66
17716;BMP280;50159;49.426;11.182;2022-08-03T09:06:16;97708.97;;;29.81
17716;BMP280;50159;49.426;11.182;2022-08-03T09:08:43;97707.97;;;29.98
17716;BMP280;50159;49.426;11.182;2022-08-03T09:11:10;97712.50;;;30.09
17716;BMP280;50159;49.426;11.182;2022-08-03T09:13:38;97714.34;;;30.20
17716;BMP280;50159;49.426;11.182;2022-08-03T09:16:21;97708.81;;;30.26
17716;BMP280;50159;49.426;11.182;2022-08-03T09:18:53;97704.94;;;30.34
17716;BMP280;50159;49.426;11.182;2022-08-03T09:21:27;97702.81;;;30.36
17716;BMP280;50159;49.426;11.182;2022-08-03T09:24:02;97702.13;;;30.29
17716;BMP280;50159;49.426;11.182;2022-08-03T09:26:35;97709.31;;;30.39
17716;BMP280;50159;49.426;11.182;2022-08-03T09:29:09;97711.84;;;30.57
17716;BMP280;50159;49.426;11.182;2022-08-03T09:31:45;97701.34;;;30.56
17716;BMP280;50159;49.426;11.182;2022-08-03T09:34:16;97699.63;;;30.66
17716;BMP280;50159;49.426;11.182;2022-08-03T09:36:49;97707.84;;;30.76
17716;BMP280;50159;49.426;11.182;2022-08-03T09:42:07;97697.03;;;30.87
17716;BMP280;50159;49.426;11.182;2022-08-03T09:44:39;97697.03;;;30.87
17716;BMP280;50159;49.426;11.182;2022-08-03T09:47:12;97700.28;;;30.89
17716;BMP280;50159;49.426;11.182;2022-08-03T09:49:41;97687.25;;;30.97
17716;BMP280;50159;49.426;11.182;2022-08-03T09:52:35;97689.56;;;31.21
17716;BMP280;50159;49.426;11.182;2022-08-03T09:55:16;97686.75;;;31.32
17716;BMP280;50159;49.426;11.182;2022-08-03T09:58:06;97686.88;;;31.42
17716;BMP280;50159;49.426;11.182;2022-08-03T10:01:03;97685.59;;;31.45
17716;BMP280;50159;49.426;11.182;2022-08-03T10:03:37;97686.72;;;31.49
17716;BMP280;50159;49.426;11.182;2022-08-03T10:06:24;97681.03;;;31.45
17716;BMP280;50159;49.426;11.182;2022-08-03T10:09:27;97681.38;;;31.70
17716;BMP280;50159;49.426;11.182;2022-08-03T10:11:54;97661.97;;;31.89
17716;BMP280;50159;49.426;11.182;2022-08-03T10:14:22;97668.06;;;32.05
17716;BMP280;50159;49.426;11.182;2022-08-03T10:16:49;97673.94;;;32.19
17716;BMP280;50159;49.426;11.182;2022-08-03T10:19:16;97667.53;;;32.24
17716;BMP280;50159;49.426;11.182;2022-08-03T10:21:49;97660.22;;;32.20
17716;BMP280;50159;49.426;11.182;2022-08-03T10:24:29;97661.50;;;32.18
17716;BMP280;50159;49.426;11.182;2022-08-03T10:27:02;97657.78;;;32.19
17716;BMP280;50159;49.426;11.182;2022-08-03T10:29:36;97655.72;;;32.30
17716;BMP280;50159;49.426;11.182;2022-08-03T10:32:14;97656.47;;;32.52
17716;BMP280;50159;49.426;11.182;2022-08-03T10:34:49;97655.53;;;32.63
17716;BMP280;50159;49.426;11.182;2022-08-03T10:37:29;97660.22;;;32.77
17716;BMP280;50159;49.426;11.182;2022-08-03T10:39:59;97648.28;;;32.99
17716;BMP280;50159;49.426;11.182;2022-08-03T10:42:28;97650.03;;;33.14
17716;BMP280;50159;49.426;11.182;2022-08-03T10:45:14;97645.78;;;33.28
17716;BMP280;50159;49.426;11.182;2022-08-03T10:47:48;97642.00;;;33.29
17716;BMP280;50159;49.426;11.182;2022-08-03T10:50:15;97642.47;;;33.16
17716;BMP280;50159;49.426;11.182;2022-08-03T10:53:05;97636.53;;;33.14
17716;BMP280;50159;49.426;11.182;2022-08-03T10:55:42;97635.31;;;33.32
17716;BMP280;50159;49.426;11.182;2022-08-03T11:01:56;97622.25;;;33.59
17716;BMP280;50159;49.426;11.182;2022-08-03T11:04:27;97623.38;;;33.78
17716;BMP280;50159;49.426;11.182;2022-08-03T11:07:18;97621.00;;;33.86
17716;BMP280;50159;49.426;11.182;2022-08-03T11:09:50;97619.34;;;33.80
17716;BMP280;50159;49.426;11.182;2022-08-03T11:12:27;97619.59;;;33.69
17716;BMP280;50159;49.426;11.182;2022-08-03T11:15:05;97622.84;;;33.76
17716;BMP280;50159;49.426;11.182;2022-08-03T11:17:34;97616.69;;;33.90
17716;BMP280;50159;49.426;11.182;2022-08-03T11:23:42;97600.56;;;34.15
17716;BMP280;50159;49.426;11.182;2022-08-03T11:26:29;97594.34;;;34.04
17716;BMP280;50159;49.426;11.182;2022-08-03T11:29:29;97603.53;;;34.03
17716;BMP280;50159;49.426;11.182;2022-08-03T11:31:56;97598.00;;;33.69
17716;BMP280;50159;49.426;11.182;2022-08-03T11:34:24;97592.13;;;33.82
17716;BMP280;50159;49.426;11.182;2022-08-03T11:37:21;97594.63;;;34.13
17716;BMP280;50159;49.426;11.182;2022-08-03T11:39:53;97597.63;;;34.36
17716;BMP280;50159;49.426;11.182;2022-08-03T11:44:53;97592.28;;;34.50
17716;BMP280;50159;49.426;11.182;2022-08-03T11:47:22;97596.06;;;34.59
17716;BMP280;50159;49.426;11.182;2022-08-03T11:49:53;97581.44;;;34.65
17716;BMP280;50159;49.426;11.182;2022-08-03T11:52:21;97596.03;;;34.89
17716;BMP280;50159;49.426;11.182;2022-08-03T11:54:54;97584.16;;;34.99
17716;BMP280;50159;49.426;11.182;2022-08-03T11:57:34;97590.03;;;35.21
17716;BMP280;50159;49.426;11.182;2022-08-03T12:00:26;97579.09;;;35.55
17716;BMP280;50159;49.426;11.182;2022-08-03T12:03:07;97573.56;;;35.80
17716;BMP280;50159;49.426;11.182;2022-08-03T12:05:50;97575.69;;;35.92
17716;BMP280;50159;49.426;11.182;2022-08-03T12:08:31;97572.03;;;35.64
17716;BMP280;50159;49.426;11.182;2022-08-03T12:11:01;97563.84;;;35.12
17716;BMP280;50159;49.426;11.182;2022-08-03T12:16:26;97555.41;;;35.18
17716;BMP280;50159;49.426;11.182;2022-08-03T12:19:02;97551.88;;;35.27
17716;BMP280;50159;49.426;11.182;2022-08-03T12:21:29;97553.16;;;35.49
17716;BMP280;50159;49.426;11.182;2022-08-03T12:23:59;97553.91;;;35.64
17716;BMP280;50159;49.426;11.182;2022-08-03T12:26:29;97550.63;;;35.67
17716;BMP280;50159;49.426;11.182;2022-08-03T12:28:56;97551.94;;;35.75
17716;BMP280;50159;49.426;11.182;2022-08-03T12:31:24;97554.13;;;35.73
17716;BMP280;50159;49.426;11.182;2022-08-03T12:36:22;97551.38;;;35.78
17716;BMP280;50159;49.426;11.182;2022-08-03T12:39:01;97544.97;;;35.64
17716;BMP280;50159;49.426;11.182;2022-08-03T12:41:38;97540.25;;;35.84
17716;BMP280;50159;49.426;11.182;2022-08-03T12:44:08;97544.47;;;36.05
17716;BMP280;50159;49.426;11.182;2022-08-03T12:46:40;97553.28;;;36.25
17716;BMP280;50159;49.426;11.182;2022-08-03T12:49:15;97549.81;;;36.19
17716;BMP280;50159;49.426;11.182;2022-08-03T12:54:23;97537.81;;;36.25
17716;BMP280;50159;49.426;11.182;2022-08-03T12:57:00;97539.16;;;36.28
17716;BMP280;50159;49.426;11.182;2022-08-03T12:59:31;97529.28;;;36.46
17716;BMP280;50159;49.426;11.182;2022-08-03T13:02:03;97527.34;;;36.52
17716;BMP280;50159;49.426;11.182;2022-08-03T13:04:35;97525.94;;;36.54
17716;BMP280;50159;49.426;11.182;2022-08-03T13:07:05;97516.84;;;36.68
17716;BMP280;50159;49.426;11.182;2022-08-03T13:09:55;97514.84;;;37.06
17716;BMP280;50159;49.426;11.182;2022-08-03T13:12:27;97514.53;;;37.36
17716;BMP280;50159;49.426;11.182;2022-08-03T13:14:58;97514.41;;;37.45
17716;BMP280;50159;49.426;11.182;2022-08-03T13:17:26;97514.53;;;37.13
17716;BMP280;50159;49.426;11.182;2022-08-03T13:19:53;97509.47;;;36.78
17716;BMP280;50159;49.426;11.182;2022-08-03T13:22:24;97513.31;;;36.73
17716;BMP280;50159;49.426;11.182;2022-08-03T13:24:54;97498.75;;;36.64
17716;BMP280;50159;49.426;11.182;2022-08-03T13:27:24;97513.41;;;36.63
17716;BMP280;50159;49.426;11.182;2022-08-03T13:30:11;97504.41;;;36.67
17716;BMP280;50159;49.426;11.182;2022-08-03T13:32:39;97513.50;;;36.53
17716;BMP280;50159;49.426;11.182;2022-08-03T13:35:07;97510.75;;;36.58
17716;BMP280;50159;49.426;11.182;2022-08-03T13:37:35;97502.91;;;36.84
17716;BMP280;50159;49.426;11.182;2022-08-03T13:40:05;97510.00;;;37.03
17716;BMP280;50159;49.426;11.182;2022-08-03T13:42:35;97498.16;;;37.22
17716;BMP280;50159;49.426;11.182;2022-08-03T13:45:03;97500.31;;;37.43
17716;BMP280;50159;49.426;11.182;2022-08-03T13:47:30;97503.13;;;37.57
17716;BMP280;50159;49.426;11.182;2022-08-03T13:49:57;97505.28;;;37.60
17716;BMP280;50159;49.426;11.182;2022-08-03T13:52:29;97496.03;;;37.61
17716;BMP280;50159;49.426;11.182;2022-08-03T13:54:56;97499.50;;;37.43
17716;BMP280;50159;49.426;11.182;2022-08-03T13:57:24;97482.72;;;37.18
17716;BMP280;50159;49.426;11.182;2022-08-03T14:00:11;97493.16;;;37.29
17716;BMP280;50159;49.426;11.182;2022-08-03T14:02:52;97492.84;;;37.54
17716;BMP280;50159;49.426;11.182;2022-08-03T14:05:21;97486.00;;;37.61
17716;BMP280;50159;49.426;11.182;2022-08-03T14:07:48;97482.47;;;37.61
17716;BMP280;50159;49.426;11.182;2022-08-03T14:10:15;97481.13;;;37.76
17716;BMP280;50159;49.426;11.182;2022-08-03T14:12:43;97476.88;;;37.88
17716;BMP280;50159;49.426;11.182;2022-08-03T14:15:10;97477.69;;;37.89
17716;BMP280;50159;49.426;11.182;2022-08-03T14:17:39;97473.16;;;37.85
17716;BMP280;50159;49.426;11.182;2022-08-03T14:20:15;97469.69;;;37.97
17716;BMP280;50159;49.426;11.182;2022-08-03T14:23:03;97470.41;;;38.21
17716;BMP280;50159;49.426;11.182;2022-08-03T14:25:29;97470.22;;;38.49
17716;BMP280;50159;49.426;11.182;2022-08-03T14:28:09;97466.66;;;38.93
17716;BMP280;50159;49.426;11.182;2022-08-03T14:30:36;97463.13;;;39.58
17716;BMP280;50159;49.426;11.182;2022-08-03T14:33:03;97466.97;;;41.46
17716;BMP280;50159;49.426;11.182;2022-08-03T14:35:29;97467.16;;;43.76
17716;BMP280;50159;49.426;11.182;2022-08-03T14:37:56;97466.19;;;45.75
17716;BMP280;50159;49.426;11.182;2022-08-03T14:40:23;97457.94;;;47.40
17716;BMP280;50159;49.426;11.182;2022-08-03T14:42:50;97466.94;;;48.75
17716;BMP280;50159;49.426;11.182;2022-08-03T14:45:17;97470.13;;;50.13
17716;BMP280;50159;49.426;11.182;2022-08-03T14:47:46;97462.13;;;51.05
17716;BMP280;50159;49.426;11.182;2022-08-03T14:50:33;97468.63;;;51.65
17716;BMP280;50159;49.426;11.182;2022-08-03T14:53:09;97465.97;;;51.82
17716;BMP280;50159;49.426;11.182;2022-08-03T14:55:36;97466.88;;;51.96
17716;BMP280;50159;49.426;11.182;2022-08-03T14:58:21;97463.16;;;52.38